KASH/ASH METAR and TAF weather

Enter ICAO airport designator
Station Type Date Time Source
KASH METAR 2022/01/27 22:56 UTC NOAA

KASH 272256Z 14003KT 10SM CLR M06/M17 A3026 RMK AO2 SLP255 T10611167


Station Type Date Time Source
KASH Decoded METAR 2022/01/27 22:56 UTC NOAA

Nashua, Boire Field Airport, NH, United States (KASH) 42-46-54N 071-30-53W
Jan 27, 2022 - 05:56 PM EST / 2022.01.27 2256 UTC
Wind: from the SE (140 degrees) at 3 MPH (3 KT):0
Visibility: 10 mile(s):0
Sky conditions: clear
Temperature: 21.0 F (-6.1 C)
Dew Point: 1.9 F (-16.7 C)
Relative Humidity: 42%
Pressure (altimeter): 30.26 in. Hg (1024 hPa)
ob: KASH 272256Z 14003KT 10SM CLR M06/M17 A3026 RMK AO2 SLP255 T10611167
cycle: 23

Station Type Date Time Source
KASH TAF UTC NOAA

Error!

Example: see airport list